Time;durP1;ratioP1;P1;durP2;ratioP2;P2;SDS_P1;SDS_P2;PMS_P1;PMS_P2;Temp;Humidity;BMP_temperature;BMP_pressure;BME280_temperature;BME280_humidity;BME280_pressure;Samples;Min_cycle;Max_cycle;Signal;HPM_P1;HPM_P2
2021/08/14 00:01:59;;;;;;;11.60;6.83;;;19.00;76.60;;;;;;5027943;28;20238;-86
2021/08/14 00:04:25;;;;;;;10.20;6.07;;;19.00;76.70;;;;;;5041133;28;20206;-86
2021/08/14 00:06:51;;;;;;;9.97;6.97;;;19.00;77.00;;;;;;5039504;28;20195;-86
2021/08/14 00:09:16;;;;;;;13.63;7.37;;;18.90;77.00;;;;;;5046364;28;20233;-86
2021/08/14 00:11:42;;;;;;;11.57;7.70;;;18.90;77.20;;;;;;5046928;28;20174;-85
2021/08/14 00:14:07;;;;;;;11.00;7.43;;;18.90;77.40;;;;;;5042426;28;20178;-87
2021/08/14 00:16:33;;;;;;;12.20;7.00;;;18.80;78.70;;;;;;5049328;28;20187;-86
2021/08/14 00:18:58;;;;;;;11.30;7.80;;;18.80;78.20;;;;;;5045583;28;20180;-87
2021/08/14 00:21:24;;;;;;;14.03;7.37;;;18.70;78.30;;;;;;5047917;28;20184;-89
2021/08/14 00:23:50;;;;;;;13.37;7.67;;;18.60;78.70;;;;;;5046031;28;20230;-86
2021/08/14 00:26:15;;;;;;;10.97;6.80;;;18.60;79.00;;;;;;5036155;28;20204;-85
2021/08/14 00:28:41;;;;;;;10.80;7.00;;;18.50;79.20;;;;;;5027298;28;20206;-87
2021/08/14 00:31:07;;;;;;;12.17;7.80;;;18.50;79.50;;;;;;5022523;28;20201;-87
2021/08/14 00:33:32;;;;;;;11.57;7.00;;;18.50;79.70;;;;;;5026967;28;20220;-86
2021/08/14 00:35:58;;;;;;;14.73;9.03;;;18.50;79.90;;;;;;5020617;28;20167;-87
2021/08/14 00:38:24;;;;;;;14.37;6.80;;;18.50;80.10;;;;;;5019448;28;20167;-88
2021/08/14 00:40:49;;;;;;;15.03;7.43;;;18.40;80.20;;;;;;5033751;28;20167;-86
2021/08/14 00:43:15;;;;;;;11.03;7.80;;;18.40;80.50;;;;;;5040054;28;20269;-87
2021/08/14 00:45:41;;;;;;;14.67;8.40;;;18.40;80.50;;;;;;5039981;28;20162;-87
2021/08/14 00:48:10;;;;;;;15.73;8.37;;;18.40;80.80;;;;;;5038558;28;20504;-88
2021/08/14 00:50:37;;;;;;;12.40;7.90;;;18.40;80.90;;;;;;5035868;28;20768;-89
2021/08/14 00:53:06;;;;;;;12.47;8.60;;;18.40;81.10;;;;;;5001372;28;20433;-87
2021/08/14 00:55:31;;;;;;;11.23;8.40;;;18.40;81.50;;;;;;5030109;28;20426;-87
2021/08/14 00:57:57;;;;;;;12.87;7.70;;;18.40;81.70;;;;;;5034953;28;20454;-86
2021/08/14 01:00:24;;;;;;;15.03;7.87;;;18.40;82.00;;;;;;5017111;28;20317;-87
2021/08/14 01:02:52;;;;;;;12.40;7.50;;;18.30;82.50;;;;;;5016137;28;20420;-86
2021/08/14 01:05:18;;;;;;;13.73;8.13;;;18.30;82.80;;;;;;5033517;28;20425;-87
2021/08/14 01:07:44;;;;;;;14.93;9.33;;;18.30;83.20;;;;;;5016950;28;20586;-87
2021/08/14 01:10:10;;;;;;;13.47;8.80;;;18.30;83.50;;;;;;5036577;28;20224;-87
2021/08/14 01:12:36;;;;;;;14.23;8.70;;;18.30;83.60;;;;;;5034510;28;20175;-87
2021/08/14 01:15:03;;;;;;;13.97;8.53;;;18.30;83.90;;;;;;5035543;28;20816;-87
2021/08/14 01:17:29;;;;;;;16.90;7.87;;;18.30;84.30;;;;;;5033920;28;20648;-87
2021/08/14 01:19:54;;;;;;;14.77;8.33;;;18.30;84.50;;;;;;5032236;28;20417;-87
2021/08/14 01:22:20;;;;;;;9.20;7.50;;;18.20;84.60;;;;;;5035866;28;20174;-87
2021/08/14 01:24:46;;;;;;;13.13;7.90;;;18.20;84.90;;;;;;5044673;28;20198;-88
2021/08/14 01:27:13;;;;;;;13.23;7.47;;;18.20;85.10;;;;;;5055061;28;20246;-89
2021/08/14 01:29:39;;;;;;;13.90;8.30;;;18.20;85.80;;;;;;5055747;28;20508;-89
2021/08/14 01:32:06;;;;;;;14.27;8.67;;;18.20;86.30;;;;;;5055843;28;20520;-89
2021/08/14 01:34:32;;;;;;;9.30;7.00;;;18.20;86.60;;;;;;5040285;28;20400;-87
2021/08/14 01:36:59;;;;;;;11.87;7.80;;;18.10;87.00;;;;;;5034792;28;20457;-88
2021/08/14 01:39:26;;;;;;;11.73;7.73;;;18.10;87.40;;;;;;5036954;28;20181;-88
2021/08/14 01:42:01;;;;;;;11.47;7.13;;;18.10;87.70;;;;;;5055924;28;20437;-89
2021/08/14 01:44:28;;;;;;;13.07;8.47;;;18.10;87.60;;;;;;5058801;28;20444;-89
2021/08/14 01:46:53;;;;;;;12.67;8.13;;;18.10;87.80;;;;;;5059075;28;20464;-89
2021/08/14 01:49:20;;;;;;;16.13;10.90;;;18.10;87.90;;;;;;5056197;28;20787;-86
2021/08/14 01:51:46;;;;;;;10.97;7.40;;;18.10;87.70;;;;;;5037932;28;20175;-87
2021/08/14 01:54:13;;;;;;;14.63;8.53;;;18.10;87.80;;;;;;5023983;28;20834;-87
2021/08/14 01:56:39;;;;;;;12.70;7.80;;;18.10;87.70;;;;;;5016541;28;20460;-87
2021/08/14 01:59:05;;;;;;;11.67;7.53;;;18.10;87.90;;;;;;5015940;28;20528;-87
2021/08/14 02:01:31;;;;;;;18.60;7.17;;;18.10;87.90;;;;;;5016566;28;20426;-86
2021/08/14 02:03:57;;;;;;;10.40;6.80;;;18.00;87.90;;;;;;5014723;28;20422;-87
2021/08/14 02:06:25;;;;;;;15.63;7.80;;;18.00;87.80;;;;;;5016452;28;20438;-87
2021/08/14 02:08:51;;;;;;;12.23;6.90;;;18.00;87.80;;;;;;5016625;28;20238;-87
2021/08/14 02:11:21;;;;;;;11.60;7.10;;;18.00;88.00;;;;;;5015507;28;20439;-86
2021/08/14 02:13:49;;;;;;;12.83;8.43;;;18.00;88.20;;;;;;5016411;28;20398;-88
2021/08/14 02:16:14;;;;;;;11.53;7.70;;;18.00;88.50;;;;;;5023563;28;20495;-87
2021/08/14 02:18:40;;;;;;;12.67;8.67;;;18.00;88.60;;;;;;5016157;28;20934;-86
2021/08/14 02:21:08;;;;;;;12.80;7.60;;;18.00;88.50;;;;;;5036519;28;20474;-87
2021/08/14 02:23:34;;;;;;;11.70;7.20;;;18.00;88.50;;;;;;5035820;28;20174;-87
2021/08/14 02:26:00;;;;;;;13.17;8.10;;;17.90;88.60;;;;;;5035847;28;20417;-87
2021/08/14 02:28:27;;;;;;;13.23;7.47;;;17.90;88.70;;;;;;5035623;28;20452;-87
2021/08/14 02:30:52;;;;;;;12.03;7.20;;;17.90;89.10;;;;;;5018654;28;20416;-87
2021/08/14 02:33:18;;;;;;;14.80;7.40;;;17.90;89.00;;;;;;5036260;28;20831;-86
2021/08/14 02:35:44;;;;;;;13.57;8.27;;;17.90;89.00;;;;;;5037277;28;20158;-87
2021/08/14 02:38:09;;;;;;;17.73;8.10;;;17.90;88.90;;;;;;5034901;28;20185;-86
2021/08/14 02:40:35;;;;;;;11.20;7.00;;;17.90;89.10;;;;;;5036142;28;20231;-86
2021/08/14 02:43:03;;;;;;;10.33;7.53;;;17.90;89.50;;;;;;5032981;28;20167;-87
2021/08/14 02:45:29;;;;;;;12.57;8.57;;;17.90;90.00;;;;;;5016515;28;20569;-86
2021/08/14 02:47:56;;;;;;;11.60;7.90;;;17.80;90.10;;;;;;5014586;28;21020;-86
2021/08/14 02:50:23;;;;;;;17.40;7.80;;;17.80;90.40;;;;;;5025304;28;20178;-87
2021/08/14 02:52:49;;;;;;;15.17;8.03;;;17.80;90.60;;;;;;5018395;28;20419;-87
2021/08/14 02:55:15;;;;;;;12.93;7.17;;;17.80;90.70;;;;;;5024086;28;20418;-86
2021/08/14 02:57:41;;;;;;;14.40;7.97;;;17.80;90.80;;;;;;5015559;28;20444;-86
2021/08/14 03:00:07;;;;;;;16.20;8.50;;;17.80;90.80;;;;;;5016596;28;20429;-88
2021/08/14 03:02:33;;;;;;;15.17;8.37;;;17.80;90.70;;;;;;5015522;28;20233;-86
2021/08/14 03:04:59;;;;;;;11.73;7.60;;;17.80;90.60;;;;;;5016212;28;21151;-87
2021/08/14 03:07:24;;;;;;;10.50;7.40;;;17.80;90.70;;;;;;5020416;28;20202;-87
2021/08/14 03:09:50;;;;;;;18.07;8.10;;;17.80;90.80;;;;;;5024042;28;20198;-87
2021/08/14 03:12:16;;;;;;;12.37;7.50;;;17.70;90.60;;;;;;5034431;28;20433;-87
2021/08/14 03:14:41;;;;;;;11.17;6.90;;;17.70;90.80;;;;;;5034273;28;20260;-87
2021/08/14 03:17:07;;;;;;;18.50;8.43;;;17.70;90.60;;;;;;5035161;28;20186;-87
2021/08/14 03:19:33;;;;;;;11.97;7.10;;;17.70;90.70;;;;;;5034033;28;20170;-87
2021/08/14 03:21:59;;;;;;;11.37;7.87;;;17.60;90.80;;;;;;5035125;28;20515;-87
2021/08/14 03:24:25;;;;;;;14.23;7.60;;;17.50;90.80;;;;;;5035606;28;20495;-86
2021/08/14 03:26:51;;;;;;;11.67;7.60;;;17.50;91.00;;;;;;5035761;28;20220;-87
2021/08/14 03:29:17;;;;;;;13.27;7.80;;;17.40;91.10;;;;;;5035384;28;20194;-87
2021/08/14 03:31:43;;;;;;;13.97;7.53;;;17.40;91.30;;;;;;5036027;28;20767;-86
2021/08/14 03:34:08;;;;;;;10.27;7.40;;;17.30;91.40;;;;;;5034673;28;20290;-86
2021/08/14 03:36:34;;;;;;;11.27;7.83;;;17.30;91.60;;;;;;5015575;28;20698;-86
2021/08/14 03:39:00;;;;;;;11.63;6.50;;;17.30;91.70;;;;;;5014907;28;20199;-86
2021/08/14 03:41:26;;;;;;;11.27;8.40;;;17.30;91.70;;;;;;5015522;28;20222;-86
2021/08/14 03:43:52;;;;;;;13.20;8.20;;;17.30;91.80;;;;;;5015631;28;20418;-86
2021/08/14 03:46:17;;;;;;;13.57;7.80;;;17.20;91.90;;;;;;5014702;28;20222;-87
2021/08/14 03:48:43;;;;;;;14.27;7.77;;;17.20;92.00;;;;;;5019543;28;20561;-85
2021/08/14 03:51:08;;;;;;;9.50;6.70;;;17.20;92.10;;;;;;5036401;28;20180;-87
2021/08/14 03:53:34;;;;;;;14.27;7.10;;;17.20;92.20;;;;;;5048459;28;20167;-87
2021/08/14 03:56:00;;;;;;;13.80;8.23;;;17.10;92.10;;;;;;5054560;28;20183;-87
2021/08/14 03:58:25;;;;;;;13.10;7.60;;;17.10;92.60;;;;;;5034511;28;20236;-87
2021/08/14 04:00:51;;;;;;;14.80;7.43;;;17.10;92.40;;;;;;5014638;28;20171;-86
2021/08/14 04:03:17;;;;;;;14.43;7.00;;;17.10;92.50;;;;;;5014802;28;20167;-87
2021/08/14 04:05:42;;;;;;;8.50;6.43;;;17.10;92.50;;;;;;5015203;28;20576;-86
2021/08/14 04:08:08;;;;;;;12.87;7.37;;;17.10;92.40;;;;;;5015647;28;20230;-87
2021/08/14 04:10:33;;;;;;;11.30;6.47;;;17.10;92.40;;;;;;5015624;28;20262;-87
2021/08/14 04:12:59;;;;;;;11.57;7.57;;;17.10;92.40;;;;;;4997271;28;20178;-86
2021/08/14 04:15:25;;;;;;;11.00;7.67;;;17.00;92.40;;;;;;5015748;28;20186;-86
2021/08/14 04:17:50;;;;;;;8.20;6.70;;;17.00;92.60;;;;;;5015467;28;20694;-88
2021/08/14 04:20:16;;;;;;;13.40;7.70;;;17.00;92.70;;;;;;5015427;28;20175;-87
2021/08/14 04:22:42;;;;;;;10.70;6.20;;;17.00;92.80;;;;;;5030082;28;20171;-88
2021/08/14 04:25:08;;;;;;;17.10;8.20;;;16.90;92.90;;;;;;5035405;28;20381;-86
2021/08/14 04:27:34;;;;;;;8.10;5.70;;;16.90;93.10;;;;;;5034401;28;20600;-86
2021/08/14 04:30:02;;;;;;;10.83;6.90;;;17.00;93.00;;;;;;5033743;28;20428;-87
2021/08/14 04:32:34;;;;;;;13.23;6.87;;;17.00;93.40;;;;;;5035138;28;20182;-86
2021/08/14 04:35:06;;;;;;;11.00;6.80;;;17.00;92.90;;;;;;5035677;28;20423;-86
2021/08/14 04:37:32;;;;;;;8.20;5.60;;;17.00;92.90;;;;;;5032962;28;20448;-86
2021/08/14 04:39:57;;;;;;;14.03;7.57;;;17.10;92.90;;;;;;5034957;28;20916;-86
2021/08/14 04:42:23;;;;;;;10.13;6.27;;;17.10;92.90;;;;;;5035216;28;20405;-87
2021/08/14 04:44:49;;;;;;;13.63;6.90;;;17.10;92.80;;;;;;5034077;28;20167;-87
2021/08/14 04:47:14;;;;;;;9.37;5.73;;;17.10;92.70;;;;;;5034555;28;20660;-86
2021/08/14 04:49:40;;;;;;;11.77;6.37;;;17.10;92.60;;;;;;5020591;28;20195;-87
2021/08/14 04:52:05;;;;;;;8.40;6.50;;;17.10;92.60;;;;;;5015198;28;20171;-87
2021/08/14 04:54:31;;;;;;;11.50;6.83;;;17.20;92.60;;;;;;5014046;28;20167;-88
2021/08/14 04:56:57;;;;;;;12.87;7.67;;;17.20;92.50;;;;;;5018952;28;20273;-88
2021/08/14 04:59:22;;;;;;;9.50;6.43;;;17.20;92.40;;;;;;5023883;28;20194;-87
2021/08/14 05:01:48;;;;;;;12.40;6.40;;;17.30;92.30;;;;;;5022923;28;20181;-86
2021/08/14 05:04:13;;;;;;;9.40;6.70;;;17.30;92.30;;;;;;5026796;28;20170;-87
2021/08/14 05:06:39;;;;;;;13.90;7.40;;;17.30;92.10;;;;;;5043130;28;20250;-86
2021/08/14 05:09:05;;;;;;;12.37;7.37;;;17.30;91.90;;;;;;5039646;28;20227;-88
2021/08/14 05:11:31;;;;;;;16.73;8.40;;;17.30;91.80;;;;;;5036596;28;20465;-88
2021/08/14 05:13:57;;;;;;;18.10;7.80;;;17.30;91.80;;;;;;5034715;28;20437;-85
2021/08/14 05:16:25;;;;;;;17.07;10.53;;;17.30;91.70;;;;;;5034688;28;20265;-87
2021/08/14 05:18:51;;;;;;;16.73;10.23;;;17.40;91.60;;;;;;5037161;28;20162;-85
2021/08/14 05:21:16;;;;;;;13.40;8.50;;;17.40;91.70;;;;;;5021006;28;20430;-88
2021/08/14 05:23:42;;;;;;;13.67;8.63;;;17.40;91.50;;;;;;5020137;28;20420;-86
2021/08/14 05:26:08;;;;;;;13.50;8.40;;;17.40;91.40;;;;;;5019581;28;20281;-86
2021/08/14 05:28:33;;;;;;;15.00;7.40;;;17.50;91.40;;;;;;5018995;28;20249;-86
2021/08/14 05:30:59;;;;;;;12.33;7.40;;;17.50;91.20;;;;;;5016896;28;20175;-86
2021/08/14 05:33:25;;;;;;;9.67;6.60;;;17.50;91.10;;;;;;5018960;28;20263;-86
2021/08/14 05:35:50;;;;;;;10.73;6.60;;;17.50;91.10;;;;;;5029884;28;20201;-86
2021/08/14 05:38:16;;;;;;;11.80;6.40;;;17.50;91.10;;;;;;5035204;28;20167;-88
2021/08/14 05:40:42;;;;;;;9.67;6.90;;;17.60;91.10;;;;;;5002897;28;20648;-87
2021/08/14 05:43:07;;;;;;;12.97;7.50;;;17.60;91.00;;;;;;5019339;28;20647;-87
2021/08/14 05:45:33;;;;;;;12.37;8.27;;;17.60;91.10;;;;;;5019798;28;20313;-88
2021/08/14 05:48:03;;;;;;;10.53;7.17;;;17.70;91.10;;;;;;5019144;28;20707;-86
2021/08/14 05:50:29;;;;;;;11.73;7.10;;;17.80;91.10;;;;;;5021268;28;20178;-87
2021/08/14 05:52:55;;;;;;;12.50;6.60;;;17.80;90.80;;;;;;5019310;28;20409;-87
2021/08/14 05:55:21;;;;;;;10.13;7.03;;;17.90;90.80;;;;;;5018403;28;20441;-86
2021/08/14 05:57:46;;;;;;;14.73;6.93;;;18.10;90.60;;;;;;5018965;28;20294;-88
2021/08/14 06:00:13;;;;;;;10.47;7.33;;;18.10;90.20;;;;;;5017232;28;20195;-87
2021/08/14 06:02:39;;;;;;;15.03;6.67;;;18.20;89.90;;;;;;5020590;28;20167;-88
2021/08/14 06:05:05;;;;;;;10.70;7.30;;;18.40;89.80;;;;;;5019992;28;20441;-86
2021/08/14 06:07:31;;;;;;;12.37;7.60;;;18.40;88.50;;;;;;5021926;28;20882;-86
2021/08/14 06:09:56;;;;;;;13.97;7.60;;;18.50;88.30;;;;;;5019970;28;20415;-87
2021/08/14 06:12:22;;;;;;;10.87;7.67;;;18.70;87.60;;;;;;5018319;28;20195;-86
2021/08/14 06:14:48;;;;;;;13.33;6.80;;;18.90;87.00;;;;;;5034567;28;20167;-87
2021/08/14 06:17:13;;;;;;;12.70;6.13;;;19.10;85.70;;;;;;5041975;28;20189;-86
2021/08/14 06:19:39;;;;;;;10.53;6.10;;;19.70;85.60;;;;;;5041333;28;20321;-87
2021/08/14 06:22:04;;;;;;;14.40;6.90;;;20.70;82.20;;;;;;5037767;28;20721;-86
2021/08/14 06:24:30;;;;;;;10.13;5.73;;;21.50;75.50;;;;;;5040337;28;20175;-87
2021/08/14 06:26:56;;;;;;;11.03;6.70;;;21.50;73.20;;;;;;5036888;28;20221;-86
2021/08/14 06:29:22;;;;;;;12.50;6.63;;;21.20;71.10;;;;;;5040372;28;20476;-87
2021/08/14 06:31:47;;;;;;;11.13;6.03;;;20.90;72.50;;;;;;5039607;28;20173;-87
2021/08/14 06:34:13;;;;;;;11.10;5.77;;;20.60;73.90;;;;;;5038791;28;20163;-86
2021/08/14 06:36:39;;;;;;;10.90;6.80;;;20.30;75.40;;;;;;5041943;28;20667;-87
2021/08/14 06:39:04;;;;;;;10.80;6.67;;;20.10;75.60;;;;;;5039675;28;20181;-87
2021/08/14 06:41:30;;;;;;;14.80;6.73;;;19.90;75.30;;;;;;5040692;28;20193;-87
2021/08/14 06:43:56;;;;;;;12.63;6.70;;;19.80;75.70;;;;;;5023007;28;20241;-88
2021/08/14 06:46:21;;;;;;;12.50;5.60;;;19.70;75.80;;;;;;5044869;28;20292;-86
2021/08/14 06:48:47;;;;;;;11.00;6.43;;;19.60;75.20;;;;;;5042015;28;20207;-87
2021/08/14 06:51:16;;;;;;;10.90;5.23;;;19.60;75.00;;;;;;5040713;28;20165;-87
2021/08/14 06:53:42;;;;;;;8.83;5.17;;;19.60;74.90;;;;;;5029655;28;20224;-86
2021/08/14 06:56:09;;;;;;;10.43;6.00;;;19.60;73.80;;;;;;5022566;28;20535;-86
2021/08/14 06:58:34;;;;;;;13.50;5.50;;;19.70;73.50;;;;;;5028033;28;20454;-87
2021/08/14 07:01:00;;;;;;;15.50;6.33;;;19.80;72.80;;;;;;5025818;28;20197;-86
2021/08/14 07:03:26;;;;;;;8.27;5.33;;;19.90;72.50;;;;;;5025105;28;20197;-87
2021/08/14 07:05:51;;;;;;;10.30;6.00;;;20.00;71.90;;;;;;5023281;28;20184;-86
2021/08/14 07:08:17;;;;;;;19.40;5.93;;;20.10;71.10;;;;;;5022763;28;20209;-87
2021/08/14 07:10:43;;;;;;;6.63;4.33;;;20.20;71.50;;;;;;5020424;28;20165;-86
2021/08/14 07:13:08;;;;;;;11.30;5.17;;;20.70;70.30;;;;;;5026061;28;20671;-88
2021/08/14 07:15:34;;;;;;;10.33;4.43;;;21.10;67.50;;;;;;5020916;28;20183;-87
2021/08/14 07:17:59;;;;;;;8.57;6.03;;;21.30;65.00;;;;;;5023437;28;20195;-89
2021/08/14 07:20:25;;;;;;;11.33;5.03;;;21.30;63.40;;;;;;5040378;28;20174;-87
2021/08/14 07:22:51;;;;;;;12.07;6.17;;;21.30;63.50;;;;;;5043267;28;20174;-89
2021/08/14 07:25:17;;;;;;;9.03;4.80;;;21.30;64.60;;;;;;5041855;28;20429;-87
2021/08/14 07:27:42;;;;;;;12.53;4.90;;;22.10;63.80;;;;;;5026976;28;20202;-87
2021/08/14 07:30:09;;;;;;;7.20;4.60;;;23.00;59.40;;;;;;5018583;28;20190;-88
2021/08/14 07:32:36;;;;;;;7.77;4.37;;;23.40;57.60;;;;;;5021201;28;20198;-87
2021/08/14 07:35:02;;;;;;;10.33;5.30;;;23.80;57.20;;;;;;5019981;28;20493;-87
2021/08/14 07:37:28;;;;;;;7.53;4.63;;;24.40;56.20;;;;;;5017938;28;20453;-87
2021/08/14 07:39:54;;;;;;;7.63;4.77;;;25.20;54.00;;;;;;5019476;28;20403;-87
2021/08/14 07:42:20;;;;;;;7.67;4.57;;;25.80;52.00;;;;;;5021837;28;20436;-87
2021/08/14 07:44:45;;;;;;;7.97;5.30;;;26.00;50.80;;;;;;5042530;28;20211;-86
2021/08/14 07:47:11;;;;;;;11.23;5.83;;;26.00;50.50;;;;;;5039716;28;20262;-89
2021/08/14 07:49:37;;;;;;;12.43;5.60;;;26.10;50.50;;;;;;5026858;28;20198;-89
2021/08/14 07:52:08;;;;;;;9.07;5.00;;;26.50;49.90;;;;;;5010124;28;20183;-89
2021/08/14 07:54:42;;;;;;;9.90;4.70;;;27.40;48.00;;;;;;5011011;28;20414;-90
2021/08/14 07:57:20;;;;;;;6.70;4.27;;;28.40;46.10;;;;;;5027768;28;20421;-90
2021/08/14 07:59:46;;;;;;;8.47;4.43;;;29.30;43.70;;;;;;5024720;28;20784;-90
2021/08/14 08:02:11;;;;;;;9.80;4.10;;;30.10;41.60;;;;;;5025235;28;20414;-89
2021/08/14 08:04:37;;;;;;;8.03;5.23;;;30.80;39.90;;;;;;5038009;28;20174;-91
2021/08/14 08:07:03;;;;;;;8.90;4.17;;;31.30;38.80;;;;;;5043033;28;20246;-92
2021/08/14 08:09:29;;;;;;;10.73;5.77;;;31.70;37.70;;;;;;5050372;28;20192;-90
2021/08/14 08:11:54;;;;;;;10.37;4.90;;;32.00;36.70;;;;;;5056074;28;20173;-90
2021/08/14 08:14:20;;;;;;;12.02;5.32;;;32.40;36.10;;;;;;5044629;28;20161;-90
2021/08/14 08:16:47;;;;;;;6.95;3.65;;;33.00;35.50;;;;;;5044852;28;20210;-87
2021/08/14 08:19:13;;;;;;;6.90;5.72;;;33.40;34.60;;;;;;5054558;28;20197;-92
2021/08/14 08:21:41;;;;;;;6.50;4.65;;;33.60;33.60;;;;;;5042685;28;20159;-89
2021/08/14 08:24:07;;;;;;;5.93;4.07;;;33.70;32.40;;;;;;5049758;28;20266;-91
2021/08/14 08:26:33;;;;;;;5.43;4.30;;;34.00;31.80;;;;;;5056683;28;20185;-90
2021/08/14 08:28:58;;;;;;;7.45;4.32;;;34.30;31.10;;;;;;5043087;28;20167;-89
2021/08/14 08:31:25;;;;;;;7.53;4.35;;;34.60;30.60;;;;;;5020328;28;20178;-88
2021/08/14 08:34:03;;;;;;;15.30;6.05;;;34.90;30.00;;;;;;5023465;28;20159;-89
2021/08/14 08:36:31;;;;;;;6.40;4.20;;;35.10;30.00;;;;;;5023808;28;20507;-88
2021/08/14 08:38:57;;;;;;;6.78;4.45;;;35.20;30.10;;;;;;5038508;28;20209;-88
2021/08/14 08:41:25;;;;;;;7.43;3.83;;;35.40;30.00;;;;;;5036918;28;20165;-87
2021/08/14 08:43:51;;;;;;;9.48;4.38;;;35.50;29.80;;;;;;5039293;28;20196;-87
2021/08/14 08:46:19;;;;;;;7.22;4.00;;;35.60;29.50;;;;;;5041517;28;20185;-89
2021/08/14 08:48:50;;;;;;;12.48;4.43;;;36.00;29.30;;;;;;5042988;28;20185;-87
2021/08/14 08:51:20;;;;;;;7.53;4.90;;;36.30;29.00;;;;;;5022603;28;20193;-88
2021/08/14 08:53:46;;;;;;;9.52;5.00;;;36.70;29.10;;;;;;5026509;28;20251;-88
2021/08/14 08:56:12;;;;;;;7.40;4.72;;;36.90;27.70;;;;;;5022285;28;20190;-88
2021/08/14 08:58:37;;;;;;;7.25;4.30;;;37.00;27.90;;;;;;5003445;28;20197;-89
2021/08/14 09:01:03;;;;;;;9.68;5.65;;;37.40;27.70;;;;;;5018564;28;20194;-87
2021/08/14 09:03:31;;;;;;;15.70;14.20;;;37.60;27.20;;;;;;5019191;28;20170;-87
2021/08/14 09:05:57;;;;;;;6.32;4.45;;;37.80;26.80;;;;;;5020915;28;20230;-88
2021/08/14 09:08:23;;;;;;;9.10;3.85;;;38.20;25.30;;;;;;5027774;28;20162;-89
2021/08/14 09:10:50;;;;;;;6.35;3.83;;;38.40;25.50;;;;;;5041775;28;20497;-88
2021/08/14 09:13:19;;;;;;;5.38;3.50;;;38.50;25.30;;;;;;5040908;28;20185;-87
2021/08/14 09:15:45;;;;;;;5.13;3.85;;;38.90;25.10;;;;;;5045322;28;20225;-88
2021/08/14 09:18:13;;;;;;;6.07;3.92;;;39.00;24.50;;;;;;5024649;28;20206;-88
2021/08/14 09:20:46;;;;;;;7.43;3.83;;;39.00;25.30;;;;;;5040992;28;20154;-87
2021/08/14 09:23:15;;;;;;;5.05;4.10;;;39.40;24.00;;;;;;5024337;28;20216;-87
2021/08/14 09:25:48;;;;;;;6.85;3.63;;;39.40;24.20;;;;;;5035871;28;20170;-87
2021/08/14 09:28:18;;;;;;;6.70;4.35;;;39.60;24.20;;;;;;5013171;28;20354;-87
2021/08/14 09:30:48;;;;;;;7.72;3.85;;;40.20;23.70;;;;;;5042717;28;20166;-86
2021/08/14 09:42:06;;;;;;;10.02;3.80;;;41.10;23.40;;;;;;5036495;28;20201;-88
2021/08/14 09:49:11;;;;;;;;;;;;;;;;;;;;;
2021/08/14 09:53:18;;;;;;;;;;;;;;;;;;;;;
2021/08/14 09:56:42;;;;;;;7.80;3.65;;;41.90;22.10;;;;;;4970613;28;20456;-88
2021/08/14 09:59:08;;;;;;;6.45;3.65;;;41.90;22.20;;;;;;4994447;28;20226;-91
2021/08/14 10:01:37;;;;;;;5.75;3.35;;;41.90;22.00;;;;;;4994778;28;20188;-88
2021/08/14 10:04:04;;;;;;;9.73;4.43;;;42.10;22.20;;;;;;5016977;28;20181;-89
2021/08/14 10:06:30;;;;;;;11.43;4.75;;;42.00;21.90;;;;;;5050492;28;20252;-89
2021/08/14 10:09:05;;;;;;;8.00;3.92;;;41.80;22.10;;;;;;5062909;28;20177;-89
2021/08/14 10:11:31;;;;;;;5.30;4.15;;;41.60;22.50;;;;;;5041454;28;20189;-89
2021/08/14 10:13:57;;;;;;;41.65;35.33;;;41.80;22.30;;;;;;5057846;28;20169;-87
2021/08/14 10:16:23;;;;;;;8.93;4.50;;;41.60;22.50;;;;;;5067566;28;20209;-89
2021/08/14 10:18:50;;;;;;;6.40;4.00;;;41.30;22.40;;;;;;5071969;28;20590;-89
2021/08/14 10:21:16;;;;;;;5.45;3.92;;;40.80;22.90;;;;;;5051270;28;20186;-87
2021/08/14 10:23:44;;;;;;;14.40;5.20;;;40.30;23.30;;;;;;5069128;28;20168;-88
2021/08/14 10:26:18;;;;;;;11.63;4.65;;;40.10;23.80;;;;;;5057204;28;20186;-88
2021/08/14 10:28:55;;;;;;;7.72;5.35;;;40.00;23.50;;;;;;5057372;28;20174;-87
2021/08/14 10:31:45;;;;;;;6.85;4.05;;;39.90;23.40;;;;;;5053761;28;20184;-88
2021/08/14 10:34:11;;;;;;;7.30;4.20;;;39.70;23.80;;;;;;5070414;28;20178;-85
2021/08/14 10:36:38;;;;;;;6.88;3.97;;;39.80;23.80;;;;;;5058142;28;20258;-87
2021/08/14 10:39:22;;;;;;;7.35;6.03;;;39.80;23.50;;;;;;5050672;28;20292;-86
2021/08/14 10:41:51;;;;;;;6.78;4.18;;;39.90;23.40;;;;;;5050833;28;20721;-87
2021/08/14 10:44:39;;;;;;;7.40;3.78;;;39.20;23.80;;;;;;5057393;28;20521;-87
2021/08/14 10:47:26;;;;;;;7.05;4.20;;;38.40;23.90;;;;;;5092852;22;20225;-80
2021/08/14 10:49:52;;;;;;;7.85;4.53;;;37.80;24.90;;;;;;5060548;28;20176;-81
2021/08/14 10:52:18;;;;;;;30.17;27.13;;;37.70;24.90;;;;;;5058844;28;20166;-80
2021/08/14 10:54:43;;;;;;;12.73;4.87;;;37.40;25.90;;;;;;5051730;28;20209;-82
2021/08/14 10:57:09;;;;;;;5.87;4.07;;;36.30;25.90;;;;;;5071158;28;20208;-83
2021/08/14 10:59:35;;;;;;;7.07;4.03;;;35.20;26.70;;;;;;5087574;28;20268;-81
2021/08/14 11:02:13;;;;;;;13.77;3.93;;;34.20;27.80;;;;;;5074824;28;20435;-80
2021/08/14 11:04:43;;;;;;;8.80;4.20;;;33.50;29.00;;;;;;5076148;28;20174;-80
2021/08/14 11:07:18;;;;;;;13.27;4.90;;;33.00;29.40;;;;;;5075416;28;20448;-82
2021/08/14 11:10:12;;;;;;;8.47;4.67;;;32.50;29.40;;;;;;5068843;28;20424;-82
2021/08/14 11:12:50;;;;;;;10.07;4.00;;;31.80;30.50;;;;;;5060863;28;20424;-80
2021/08/14 11:15:27;;;;;;;9.63;3.37;;;31.60;31.40;;;;;;5062828;28;20412;-82
2021/08/14 11:18:02;;;;;;;7.93;4.00;;;31.60;32.10;;;;;;5049010;28;20459;-81
2021/08/14 11:20:39;;;;;;;5.93;3.27;;;31.30;31.00;;;;;;5065625;28;20415;-81
2021/08/14 11:23:25;;;;;;;8.13;4.10;;;31.10;31.00;;;;;;5071688;28;20454;-81
2021/08/14 11:25:53;;;;;;;7.80;3.27;;;30.70;30.00;;;;;;5050996;28;20865;-81
2021/08/14 11:28:22;;;;;;;8.70;3.60;;;30.60;30.30;;;;;;5062268;28;20416;-81
2021/08/14 11:30:55;;;;;;;7.43;3.87;;;30.20;31.10;;;;;;5062561;28;20423;-82
2021/08/14 11:33:24;;;;;;;8.93;4.47;;;29.80;32.00;;;;;;5071667;28;20996;-82
2021/08/14 11:36:02;;;;;;;6.00;4.00;;;29.60;32.40;;;;;;5085193;28;20420;-83
2021/08/14 11:38:48;;;;;;;8.33;3.30;;;29.60;33.30;;;;;;5087857;28;20465;-82
2021/08/14 11:41:33;;;;;;;7.43;4.67;;;29.70;33.50;;;;;;5064000;28;20474;-81
2021/08/14 11:44:04;;;;;;;10.67;6.07;;;29.50;33.40;;;;;;5071013;28;20416;-84
2021/08/14 11:46:30;;;;;;;7.17;3.70;;;29.60;33.70;;;;;;5065006;28;20439;-80
2021/08/14 11:49:03;;;;;;;5.43;2.97;;;29.60;33.70;;;;;;5067419;28;20428;-81
2021/08/14 11:51:30;;;;;;;8.50;3.30;;;29.60;33.30;;;;;;5072913;28;20443;-82
2021/08/14 11:54:28;;;;;;;7.37;4.00;;;29.40;33.00;;;;;;5063149;28;20415;-82
2021/08/14 11:57:07;;;;;;;7.10;3.80;;;29.30;34.00;;;;;;5054390;28;20534;-81
2021/08/14 11:59:34;;;;;;;7.83;3.73;;;29.30;33.80;;;;;;5059921;28;20443;-80
2021/08/14 12:02:00;;;;;;;7.33;4.47;;;29.10;33.40;;;;;;5043745;28;20434;-82
2021/08/14 12:04:25;;;;;;;12.43;3.67;;;29.00;34.20;;;;;;5061737;28;20420;-82
2021/08/14 12:06:57;;;;;;;10.60;4.00;;;29.00;34.30;;;;;;5071700;28;20439;-81
2021/08/14 12:09:24;;;;;;;7.53;3.10;;;29.10;34.20;;;;;;5081827;28;20176;-81
2021/08/14 12:11:56;;;;;;;6.90;2.90;;;29.20;33.90;;;;;;5079174;28;20431;-80
2021/08/14 12:14:24;;;;;;;6.07;2.70;;;29.40;34.00;;;;;;5070662;28;20440;-82
2021/08/14 12:17:00;;;;;;;4.30;3.40;;;29.60;33.80;;;;;;5060371;28;20859;-79
2021/08/14 12:19:27;;;;;;;7.23;3.47;;;29.70;33.20;;;;;;5070991;28;20452;-78
2021/08/14 12:22:13;;;;;;;9.23;3.30;;;29.60;33.00;;;;;;5063575;28;20465;-75
2021/08/14 12:24:42;;;;;;;10.83;7.27;;;29.50;33.60;;;;;;5067263;28;20488;-77
2021/08/14 12:27:27;;;;;;;8.47;3.30;;;29.40;34.30;;;;;;5065151;28;20432;-76
2021/08/14 12:29:54;;;;;;;5.03;3.30;;;29.20;33.80;;;;;;5076481;28;20424;-76
2021/08/14 12:32:30;;;;;;;5.00;3.30;;;29.00;34.00;;;;;;5078268;28;20415;-77
2021/08/14 12:35:16;;;;;;;8.20;3.43;;;28.70;34.40;;;;;;5068383;28;20423;-77
2021/08/14 12:37:42;;;;;;;4.57;2.57;;;28.50;34.40;;;;;;5069316;28;20430;-76
2021/08/14 12:40:09;;;;;;;7.73;3.23;;;28.30;35.00;;;;;;5073533;28;20412;-78
2021/08/14 12:42:36;;;;;;;4.50;3.23;;;28.20;35.10;;;;;;5059452;28;20416;-77
2021/08/14 12:45:17;;;;;;;9.50;3.67;;;28.10;34.90;;;;;;5069298;28;20423;-77
2021/08/14 12:47:44;;;;;;;8.07;3.30;;;28.00;36.00;;;;;;5067838;28;20456;-77
2021/08/14 12:50:31;;;;;;;7.40;4.13;;;27.90;36.20;;;;;;5068576;28;20430;-77
2021/08/14 12:53:04;;;;;;;6.73;3.63;;;27.90;36.70;;;;;;5060659;28;20478;-77
2021/08/14 12:55:51;;;;;;;6.87;3.10;;;27.80;36.50;;;;;;5057267;28;20502;-76
2021/08/14 12:58:20;;;;;;;9.40;4.40;;;27.70;36.60;;;;;;5062336;28;20456;-75
2021/08/14 13:00:51;;;;;;;8.67;3.50;;;27.60;38.00;;;;;;5059390;28;20419;-77
2021/08/14 13:03:18;;;;;;;6.30;3.30;;;27.40;37.80;;;;;;5064262;28;20430;-76